Time;durP1;ratioP1;P1;durP2;ratioP2;P2;SDS_P1;SDS_P2;PMS_P1;PMS_P2;Temp;Humidity;BMP_temperature;BMP_pressure;BME280_temperature;BME280_humidity;BME280_pressure;Samples;Min_cycle;Max_cycle;Signal;HPM_P1;HPM_P2
2022/09/21 00:01:10;;;;;;;7.53;3.40;;;9.40;99.90;;;;;;5067958;28;20036;-87
2022/09/21 00:03:37;;;;;;;6.15;2.90;;;9.40;99.90;;;;;;5071443;28;20049;-86
2022/09/21 00:06:10;;;;;;;5.68;3.45;;;9.30;99.90;;;;;;5078752;28;20040;-87
2022/09/21 00:08:36;;;;;;;8.40;3.17;;;9.30;99.90;;;;;;5061277;28;20024;-87
2022/09/21 00:11:03;;;;;;;8.32;3.75;;;9.30;99.90;;;;;;5043495;28;20135;-87
2022/09/21 00:13:31;;;;;;;5.03;3.15;;;9.20;99.90;;;;;;5046684;28;20500;-87
2022/09/21 00:15:57;;;;;;;5.97;3.15;;;9.20;99.90;;;;;;5070855;28;20032;-88
2022/09/21 00:18:23;;;;;;;4.90;3.65;;;9.20;99.90;;;;;;5060061;28;20396;-87
2022/09/21 00:20:51;;;;;;;6.45;3.30;;;9.20;99.90;;;;;;5058428;28;20067;-87
2022/09/21 00:23:17;;;;;;;6.95;3.53;;;9.20;99.90;;;;;;5053502;28;20039;-86
2022/09/21 00:25:43;;;;;;;6.03;3.20;;;9.10;99.90;;;;;;5057927;28;20050;-84
2022/09/21 00:28:09;;;;;;;7.15;3.50;;;9.10;99.90;;;;;;5032634;28;20535;-86
2022/09/21 00:30:36;;;;;;;8.02;3.47;;;9.10;99.90;;;;;;5077702;28;20039;-87
2022/09/21 00:33:02;;;;;;;8.63;3.35;;;9.00;99.90;;;;;;5071721;28;20040;-87
2022/09/21 00:35:27;;;;;;;6.97;3.25;;;9.00;99.90;;;;;;5083940;28;20035;-89
2022/09/21 00:37:54;;;;;;;7.97;3.20;;;9.00;99.90;;;;;;5033651;28;20097;-87
2022/09/21 00:40:19;;;;;;;8.15;3.28;;;9.00;99.90;;;;;;5056234;28;20094;-87
2022/09/21 00:42:45;;;;;;;7.78;3.00;;;8.90;99.90;;;;;;5042324;28;20047;-87
2022/09/21 00:45:30;;;;;;;9.35;3.38;;;8.90;99.90;;;;;;5066072;28;20040;-86
2022/09/21 00:48:00;;;;;;;5.90;3.20;;;8.90;99.90;;;;;;5083384;28;20036;-87
2022/09/21 00:50:26;;;;;;;6.07;3.22;;;8.90;99.90;;;;;;5062726;28;20585;-87
2022/09/21 00:52:55;;;;;;;4.90;2.95;;;8.90;99.90;;;;;;5076938;28;20035;-87
2022/09/21 00:55:26;;;;;;;4.85;3.17;;;8.90;99.90;;;;;;5073350;28;20388;-87
2022/09/21 00:57:58;;;;;;;6.57;3.40;;;8.80;99.90;;;;;;5084403;28;20425;-87
2022/09/21 01:00:24;;;;;;;7.22;3.47;;;8.80;99.90;;;;;;5088489;28;20036;-86
2022/09/21 01:02:51;;;;;;;4.75;2.97;;;8.80;99.90;;;;;;5037701;28;20065;-86
2022/09/21 01:05:16;;;;;;;7.38;3.70;;;8.80;99.90;;;;;;5075999;28;20048;-87
2022/09/21 01:07:46;;;;;;;9.32;3.25;;;8.80;99.90;;;;;;5054718;28;20040;-87
2022/09/21 01:10:15;;;;;;;8.30;3.40;;;8.80;99.90;;;;;;5079608;28;20043;-87
2022/09/21 01:12:49;;;;;;;5.43;3.13;;;8.70;99.90;;;;;;5071460;28;20044;-87
2022/09/21 01:15:40;;;;;;;5.85;3.33;;;8.70;99.90;;;;;;5081704;28;20035;-88
2022/09/21 01:18:25;;;;;;;6.05;3.00;;;8.70;99.90;;;;;;5085478;28;20044;-87
2022/09/21 01:21:33;;;;;;;5.47;2.90;;;8.60;99.90;;;;;;5077654;28;20050;-86
2022/09/21 01:24:16;;;;;;;6.20;2.90;;;8.50;99.90;;;;;;5047571;28;20086;-87
2022/09/21 01:26:57;;;;;;;5.13;2.92;;;8.50;99.90;;;;;;5081334;28;20040;-86
2022/09/21 01:29:48;;;;;;;5.75;2.60;;;8.50;99.90;;;;;;5083738;28;20075;-87
2022/09/21 01:32:28;;;;;;;3.97;2.63;;;8.40;99.90;;;;;;5066934;28;20036;-86
2022/09/21 01:35:09;;;;;;;;;;;8.40;99.90;;;;;;5083562;28;20036;-85
2022/09/21 01:37:49;;;;;;;4.70;2.80;;;8.40;99.90;;;;;;5067638;28;19916;-86
2022/09/21 01:40:24;;;;;;;7.03;2.55;;;8.30;99.90;;;;;;5065424;28;20103;-86
2022/09/21 01:42:51;;;;;;;6.50;3.03;;;8.30;99.90;;;;;;5069255;28;20044;-87
2022/09/21 01:45:25;;;;;;;4.75;2.58;;;8.30;99.90;;;;;;5055773;28;20045;-86
2022/09/21 01:47:53;;;;;;;5.43;2.38;;;8.30;99.90;;;;;;5068554;28;20043;-89
2022/09/21 01:50:20;;;;;;;4.43;2.70;;;8.30;99.90;;;;;;5048104;28;20118;-87
2022/09/21 01:52:51;;;;;;;3.92;2.33;;;8.30;99.90;;;;;;5081833;28;20496;-87
2022/09/21 01:55:31;;;;;;;3.58;2.33;;;8.30;99.90;;;;;;5079853;28;20037;-88
2022/09/21 01:58:03;;;;;;;4.22;2.55;;;8.30;99.90;;;;;;5058826;28;20042;-86
2022/09/21 02:00:33;;;;;;;3.05;2.30;;;8.20;99.90;;;;;;5083288;28;20048;-87
2022/09/21 02:03:07;;;;;;;3.33;1.75;;;8.20;99.90;;;;;;5077963;28;20048;-87
2022/09/21 02:05:33;;;;;;;2.72;1.80;;;8.10;99.90;;;;;;5085347;28;20426;-86
2022/09/21 02:08:00;;;;;;;2.38;1.65;;;8.10;99.90;;;;;;5072353;28;20067;-87
2022/09/21 02:10:35;;;;;;;2.50;1.60;;;8.10;99.90;;;;;;5070273;28;20044;-85
2022/09/21 02:13:04;;;;;;;3.33;1.30;;;8.00;99.90;;;;;;5085226;28;20048;-87
2022/09/21 02:16:04;;;;;;;2.13;1.42;;;8.00;99.90;;;;;;5080129;28;20549;-88
2022/09/21 02:18:42;;;;;;;3.80;1.48;;;8.00;99.90;;;;;;5080190;28;20047;-87
2022/09/21 02:21:28;;;;;;;1.70;1.30;;;8.00;99.90;;;;;;5061759;28;20044;-86
2022/09/21 02:24:20;;;;;;;1.80;1.20;;;7.90;99.90;;;;;;5059669;28;20076;-85
2022/09/21 02:27:13;;;;;;;1.55;1.10;;;7.90;99.90;;;;;;5096816;28;20361;-85
2022/09/21 02:29:55;;;;;;;1.77;1.05;;;8.60;99.90;;;;;;5051577;28;20056;-86
2022/09/21 02:32:32;;;;;;;2.95;1.20;;;8.40;99.90;;;;;;5078371;28;20044;-86
2022/09/21 02:35:39;;;;;;;1.98;1.20;;;7.90;99.90;;;;;;5065512;28;20577;-86
2022/09/21 02:38:55;;;;;;;1.65;1.13;;;7.90;99.90;;;;;;5063823;28;20082;-86
2022/09/21 02:41:27;;;;;;;1.55;1.20;;;7.80;99.90;;;;;;5022332;28;20044;-85
2022/09/21 02:44:23;;;;;;;2.20;1.30;;;7.80;99.90;;;;;;5079841;28;20058;-86
2022/09/21 02:46:54;;;;;;;3.40;1.42;;;8.20;99.90;;;;;;5077226;28;20050;-86
2022/09/21 02:49:30;;;;;;;3.47;1.40;;;7.80;99.90;;;;;;5060374;28;20036;-87
2022/09/21 02:52:06;;;;;;;3.03;1.40;;;7.70;99.90;;;;;;5065273;28;20551;-87
2022/09/21 02:54:37;;;;;;;1.67;1.40;;;7.70;99.90;;;;;;5069117;28;20133;-86
2022/09/21 02:57:04;;;;;;;1.73;1.27;;;7.70;99.90;;;;;;5074443;28;20119;-86
2022/09/21 02:59:30;;;;;;;2.30;1.58;;;7.60;99.90;;;;;;5064490;28;20048;-87
2022/09/21 03:01:56;;;;;;;2.08;1.30;;;7.60;99.90;;;;;;5058369;28;20032;-86
2022/09/21 03:04:22;;;;;;;1.90;1.20;;;7.60;99.90;;;;;;5055388;28;20088;-87
2022/09/21 03:06:48;;;;;;;2.05;1.45;;;7.60;99.90;;;;;;5078990;28;20118;-87
2022/09/21 03:09:13;;;;;;;1.65;1.20;;;7.60;99.90;;;;;;5063546;28;20548;-86
2022/09/21 03:11:42;;;;;;;2.65;1.50;;;8.30;99.90;;;;;;5059534;28;20058;-86
2022/09/21 03:14:08;;;;;;;2.72;1.70;;;7.50;99.90;;;;;;5087130;28;20036;-87
2022/09/21 03:16:35;;;;;;;2.47;1.40;;;7.50;99.90;;;;;;5082349;28;20510;-87
2022/09/21 03:19:01;;;;;;;2.15;1.50;;;7.40;99.90;;;;;;5067397;28;20032;-86
2022/09/21 03:21:26;;;;;;;2.78;1.50;;;7.40;99.90;;;;;;5047036;28;20078;-87
2022/09/21 03:23:52;;;;;;;1.80;1.40;;;7.40;99.90;;;;;;5064503;28;20562;-87
2022/09/21 03:26:21;;;;;;;2.38;1.60;;;7.40;99.90;;;;;;5062678;28;20040;-88
2022/09/21 03:28:51;;;;;;;4.10;1.50;;;7.40;99.90;;;;;;5071672;28;20041;-87
2022/09/21 03:31:16;;;;;;;2.25;1.40;;;7.40;99.90;;;;;;5062228;28;20143;-87
2022/09/21 03:33:42;;;;;;;2.47;1.40;;;8.10;99.90;;;;;;5069385;28;20504;-87
2022/09/21 03:36:08;;;;;;;3.33;1.50;;;7.40;99.90;;;;;;5057971;28;20037;-87
2022/09/21 03:38:34;;;;;;;2.05;1.20;;;7.90;99.90;;;;;;5060726;28;20055;-87
2022/09/21 03:41:00;;;;;;;2.13;1.50;;;7.50;99.90;;;;;;5055619;28;20400;-87
2022/09/21 03:43:26;;;;;;;2.22;1.40;;;7.40;99.90;;;;;;5074893;28;20036;-87
2022/09/21 03:45:52;;;;;;;2.03;1.30;;;7.30;99.90;;;;;;5059853;28;20063;-87
2022/09/21 03:48:18;;;;;;;2.08;1.48;;;7.30;99.90;;;;;;5063455;28;20048;-86
2022/09/21 03:50:44;;;;;;;2.78;1.58;;;7.30;99.90;;;;;;5028261;28;20044;-87
2022/09/21 03:53:10;;;;;;;2.05;1.30;;;7.30;99.90;;;;;;5068527;28;20047;-87
2022/09/21 03:55:37;;;;;;;3.17;1.40;;;7.20;99.90;;;;;;5060650;28;20445;-86
2022/09/21 03:58:03;;;;;;;1.90;1.38;;;7.20;99.90;;;;;;5079978;28;20503;-86
2022/09/21 04:00:29;;;;;;;2.78;1.60;;;7.20;99.90;;;;;;5046968;28;20032;-86
2022/09/21 04:02:55;;;;;;;2.70;1.75;;;7.20;99.90;;;;;;5028026;28;20047;-86
2022/09/21 04:05:21;;;;;;;3.72;1.67;;;7.60;99.90;;;;;;5074516;28;20036;-86
2022/09/21 04:07:47;;;;;;;2.40;1.90;;;7.10;99.90;;;;;;5076645;28;20062;-86
2022/09/21 04:10:20;;;;;;;3.17;2.03;;;7.20;99.90;;;;;;5050231;28;20078;-86
2022/09/21 04:12:46;;;;;;;6.03;2.05;;;7.70;99.90;;;;;;5076016;28;20148;-87
2022/09/21 04:15:20;;;;;;;4.18;1.90;;;7.10;99.90;;;;;;5045527;28;20039;-87
2022/09/21 04:17:50;;;;;;;3.38;1.77;;;7.10;99.90;;;;;;5071383;28;20032;-87
2022/09/21 04:20:16;;;;;;;2.35;1.85;;;7.10;99.90;;;;;;5054945;28;20047;-85
2022/09/21 04:22:42;;;;;;;5.15;1.95;;;7.00;99.90;;;;;;5063477;28;20107;-87
2022/09/21 04:25:09;;;;;;;3.65;1.80;;;7.00;99.90;;;;;;5042871;28;20079;-87
2022/09/21 04:27:35;;;;;;;3.42;1.75;;;7.00;99.90;;;;;;5077170;28;20097;-87
2022/09/21 04:30:00;;;;;;;3.33;2.10;;;7.00;99.90;;;;;;5055744;28;20447;-87
2022/09/21 04:32:26;;;;;;;5.30;2.60;;;8.00;99.90;;;;;;5042301;28;20120;-87
2022/09/21 04:34:52;;;;;;;5.40;2.42;;;7.00;99.90;;;;;;5047944;28;20380;-87
2022/09/21 04:37:17;;;;;;;3.70;1.90;;;7.50;99.90;;;;;;5056776;28;20119;-87
2022/09/21 04:39:43;;;;;;;4.18;2.17;;;6.90;99.90;;;;;;5063594;28;20133;-88
2022/09/21 04:42:09;;;;;;;5.32;2.40;;;6.90;99.90;;;;;;5047794;28;20385;-87
2022/09/21 04:44:35;;;;;;;2.92;2.05;;;7.50;99.90;;;;;;5059904;28;20036;-87
2022/09/21 04:47:01;;;;;;;3.67;2.25;;;6.90;99.90;;;;;;5054235;28;20040;-87
2022/09/21 04:49:27;;;;;;;4.50;2.08;;;6.90;99.90;;;;;;5044656;28;20063;-87
2022/09/21 04:51:53;;;;;;;2.78;1.83;;;6.80;99.90;;;;;;5062771;28;20119;-87
2022/09/21 04:54:18;;;;;;;2.67;1.77;;;6.90;99.90;;;;;;5044073;28;20039;-88
2022/09/21 04:56:44;;;;;;;4.55;1.80;;;6.80;99.90;;;;;;5045922;28;20052;-86
2022/09/21 04:59:10;;;;;;;3.88;2.10;;;6.80;99.90;;;;;;5035744;28;20037;-87
2022/09/21 05:01:35;;;;;;;2.80;1.80;;;6.80;99.90;;;;;;5054359;28;20114;-87
2022/09/21 05:04:01;;;;;;;3.25;2.00;;;6.80;99.90;;;;;;5044409;28;20040;-86
2022/09/21 05:06:32;;;;;;;3.28;2.00;;;6.80;99.90;;;;;;5032566;28;20044;-88
2022/09/21 05:11:43;;;;;;;5.75;1.90;;;6.70;99.90;;;;;;5086959;28;20078;-85
2022/09/21 05:14:09;;;;;;;3.88;2.40;;;7.00;99.90;;;;;;5076102;28;20474;-85
2022/09/21 05:16:35;;;;;;;3.88;2.40;;;6.70;99.90;;;;;;5059942;28;20048;-86
2022/09/21 05:19:00;;;;;;;4.07;2.08;;;6.70;99.90;;;;;;5044883;28;20036;-86
2022/09/21 05:21:26;;;;;;;4.40;2.38;;;6.40;99.90;;;;;;5062320;28;20039;-85
2022/09/21 05:23:52;;;;;;;5.05;2.40;;;6.60;99.90;;;;;;5080644;28;20043;-85
2022/09/21 05:26:18;;;;;;;3.63;2.22;;;6.60;99.90;;;;;;5066508;28;20046;-86
2022/09/21 05:28:44;;;;;;;10.00;2.60;;;6.60;99.90;;;;;;5052432;28;20036;-85
2022/09/21 05:31:16;;;;;;;4.72;2.10;;;6.60;99.90;;;;;;5060015;28;20492;-86
2022/09/21 05:33:51;;;;;;;5.65;2.60;;;6.60;99.90;;;;;;5071131;28;20040;-86
2022/09/21 05:36:36;;;;;;;3.70;2.22;;;6.50;99.90;;;;;;5072212;28;20502;-85
2022/09/21 05:39:02;;;;;;;3.03;2.30;;;6.50;99.90;;;;;;5075453;28;20052;-85
2022/09/21 05:41:28;;;;;;;3.00;1.70;;;6.50;99.90;;;;;;5082084;28;20044;-85
2022/09/21 05:43:54;;;;;;;3.53;1.92;;;6.50;99.90;;;;;;5058092;28;20049;-84
2022/09/21 05:46:47;;;;;;;5.13;2.33;;;6.50;99.90;;;;;;5055908;28;20087;-86
2022/09/21 05:49:58;;;;;;;3.20;1.90;;;6.50;99.90;;;;;;5072239;28;20036;-85
2022/09/21 05:52:39;;;;;;;3.22;1.75;;;6.50;99.90;;;;;;5050934;28;20055;-84
2022/09/21 05:55:39;;;;;;;3.60;1.67;;;6.60;99.90;;;;;;5091980;28;20036;-84
2022/09/21 05:58:37;;;;;;;3.97;1.85;;;6.60;99.90;;;;;;5055934;28;20028;-85
2022/09/21 06:01:33;;;;;;;2.85;1.90;;;6.60;99.90;;;;;;5073502;28;20389;-86
2022/09/21 06:04:01;;;;;;;2.63;1.63;;;6.60;99.90;;;;;;5072242;28;20044;-87
2022/09/21 06:06:26;;;;;;;4.15;2.00;;;7.70;99.90;;;;;;5061999;28;20127;-87
2022/09/21 06:08:52;;;;;;;2.95;1.70;;;6.60;99.90;;;;;;5055273;28;20091;-85
2022/09/21 06:11:18;;;;;;;3.30;1.95;;;6.60;99.90;;;;;;5048078;28;20175;-85
2022/09/21 06:13:44;;;;;;;3.05;1.90;;;6.70;99.90;;;;;;5070156;28;20044;-84
2022/09/21 06:16:10;;;;;;;5.72;2.17;;;7.30;99.90;;;;;;5077220;28;20097;-85
2022/09/21 06:18:41;;;;;;;4.88;2.40;;;6.70;99.90;;;;;;5058193;28;20040;-87
2022/09/21 06:21:07;;;;;;;3.10;2.20;;;6.80;99.90;;;;;;5085506;28;20036;-85
2022/09/21 06:23:33;;;;;;;3.22;2.20;;;7.10;99.90;;;;;;5068798;28;20082;-85
2022/09/21 06:25:59;;;;;;;3.58;2.47;;;6.80;99.90;;;;;;5060909;28;20542;-86
2022/09/21 06:28:26;;;;;;;3.50;2.70;;;6.80;99.90;;;;;;5062498;28;20036;-86
2022/09/21 06:30:54;;;;;;;4.35;3.25;;;6.90;99.90;;;;;;5055383;28;20105;-85
2022/09/21 06:33:22;;;;;;;3.72;2.90;;;7.50;99.90;;;;;;5077682;28;20039;-86
2022/09/21 06:35:58;;;;;;;4.63;2.95;;;7.00;99.90;;;;;;5092782;28;20047;-86
2022/09/21 06:38:26;;;;;;;3.65;2.97;;;7.00;99.90;;;;;;5084203;28;20115;-87
2022/09/21 06:40:53;;;;;;;7.70;3.92;;;7.50;99.90;;;;;;5048406;28;20048;-87
2022/09/21 06:43:20;;;;;;;5.20;4.03;;;7.10;99.90;;;;;;5063643;28;20440;-87
2022/09/21 06:45:56;;;;;;;5.70;4.30;;;7.10;99.90;;;;;;5078718;28;20041;-86
2022/09/21 06:48:22;;;;;;;4.72;3.90;;;7.20;99.90;;;;;;5065216;28;20036;-86
2022/09/21 06:50:48;;;;;;;4.95;3.88;;;7.20;99.90;;;;;;5084565;28;20048;-86
2022/09/21 06:53:15;;;;;;;5.05;3.58;;;7.30;99.90;;;;;;5078443;28;20036;-85
2022/09/21 06:55:41;;;;;;;5.50;3.40;;;7.30;99.90;;;;;;5077366;28;20061;-86
2022/09/21 06:58:06;;;;;;;4.32;3.08;;;7.40;99.90;;;;;;5080018;28;20040;-87
2022/09/21 07:00:32;;;;;;;3.53;2.92;;;7.40;99.90;;;;;;5075071;28;20092;-86
2022/09/21 07:02:58;;;;;;;4.50;2.80;;;7.50;99.90;;;;;;5081023;28;20036;-84
2022/09/21 07:05:24;;;;;;;3.65;2.80;;;7.50;99.90;;;;;;5061727;28;20029;-84
2022/09/21 07:07:50;;;;;;;3.08;2.60;;;7.60;99.90;;;;;;5067709;28;20059;-85
2022/09/21 07:10:16;;;;;;;4.88;3.15;;;7.70;99.90;;;;;;5074782;28;20048;-85
2022/09/21 07:12:42;;;;;;;8.45;3.38;;;7.70;99.90;;;;;;5061561;28;20494;-86
2022/09/21 07:15:09;;;;;;;6.88;3.80;;;7.70;99.90;;;;;;5079017;28;20055;-85
2022/09/21 07:17:37;;;;;;;5.47;3.92;;;7.80;99.90;;;;;;5042887;28;20040;-85
2022/09/21 07:20:05;;;;;;;6.95;3.70;;;7.90;99.90;;;;;;5051103;28;20126;-85
2022/09/21 07:22:33;;;;;;;7.10;3.78;;;7.90;99.90;;;;;;5052535;28;20047;-86
2022/09/21 07:24:59;;;;;;;6.15;3.80;;;8.00;99.90;;;;;;5044600;28;20079;-85
2022/09/21 07:27:26;;;;;;;7.50;3.97;;;8.10;99.90;;;;;;5061057;28;20071;-85
2022/09/21 07:29:52;;;;;;;7.40;4.00;;;8.10;99.90;;;;;;5049167;28;20127;-86
2022/09/21 07:32:18;;;;;;;5.35;3.80;;;8.20;99.90;;;;;;5076304;28;20127;-86
2022/09/21 07:34:45;;;;;;;7.60;3.65;;;8.30;99.90;;;;;;5056611;28;20100;-86
2022/09/21 07:37:12;;;;;;;7.68;4.38;;;8.40;99.90;;;;;;5076207;28;20050;-86
2022/09/21 07:39:38;;;;;;;5.28;3.65;;;8.60;99.90;;;;;;5080384;28;20061;-86
2022/09/21 07:42:05;;;;;;;7.15;4.30;;;8.50;99.90;;;;;;5056330;28;20053;-86
2022/09/21 07:44:30;;;;;;;6.20;4.13;;;8.60;99.90;;;;;;5048094;28;20066;-86
2022/09/21 07:46:56;;;;;;;5.97;4.18;;;8.70;99.90;;;;;;5076901;28;20492;-86
2022/09/21 07:49:22;;;;;;;6.75;4.57;;;9.10;99.90;;;;;;5044633;28;20040;-86
2022/09/21 07:51:47;;;;;;;7.68;4.40;;;8.80;99.90;;;;;;5049173;28;20047;-85
2022/09/21 07:54:14;;;;;;;7.65;4.47;;;8.90;99.90;;;;;;5056433;28;20029;-86
2022/09/21 07:56:41;;;;;;;5.55;4.50;;;9.00;99.90;;;;;;5077264;28;20552;-86
2022/09/21 07:59:07;;;;;;;10.07;5.05;;;9.10;99.90;;;;;;5061287;28;20036;-86
2022/09/21 08:01:35;;;;;;;9.18;4.50;;;9.20;99.90;;;;;;5059744;28;20048;-86
2022/09/21 08:04:03;;;;;;;8.98;4.75;;;9.30;99.90;;;;;;5078933;28;20051;-86
2022/09/21 08:06:32;;;;;;;9.65;4.60;;;9.40;99.90;;;;;;5049157;28;20130;-87
2022/09/21 08:09:02;;;;;;;9.77;4.80;;;9.50;99.90;;;;;;5061260;28;20280;-86
2022/09/21 08:11:29;;;;;;;5.70;4.20;;;9.60;99.90;;;;;;5078548;28;20044;-86
2022/09/21 08:13:57;;;;;;;8.43;4.40;;;9.70;99.90;;;;;;5086073;28;20044;-86
2022/09/21 08:16:24;;;;;;;8.63;4.88;;;9.80;99.90;;;;;;5058761;28;20078;-86
2022/09/21 08:18:50;;;;;;;14.38;4.68;;;10.90;99.90;;;;;;5068859;28;20032;-86
2022/09/21 08:21:16;;;;;;;11.13;4.70;;;10.00;99.90;;;;;;5039379;28;20040;-85
2022/09/21 08:23:42;;;;;;;12.68;4.68;;;10.10;99.90;;;;;;5058636;28;20036;-86
2022/09/21 08:26:22;;;;;;;8.38;4.85;;;10.20;99.90;;;;;;5047189;28;20504;-86
2022/09/21 08:28:50;;;;;;;10.35;4.70;;;10.20;99.90;;;;;;5072674;28;20123;-86
2022/09/21 08:31:18;;;;;;;11.65;5.20;;;10.50;99.90;;;;;;5066540;28;20531;-87
2022/09/21 08:33:45;;;;;;;10.07;4.85;;;10.40;99.90;;;;;;5041626;28;20374;-86
2022/09/21 08:36:10;;;;;;;7.25;4.20;;;10.50;99.90;;;;;;5037715;28;20557;-86
2022/09/21 08:38:37;;;;;;;7.68;4.35;;;10.50;99.90;;;;;;5064649;28;20053;-85
2022/09/21 08:41:28;;;;;;;8.52;4.25;;;10.60;99.90;;;;;;5079702;28;20060;-87
2022/09/21 08:43:59;;;;;;;10.07;4.43;;;10.70;99.90;;;;;;5069794;28;20522;-86
2022/09/21 08:46:27;;;;;;;13.93;4.22;;;10.70;99.90;;;;;;5059432;28;20032;-86
2022/09/21 08:48:55;;;;;;;7.90;4.07;;;10.80;99.90;;;;;;5055129;28;20468;-86
2022/09/21 08:51:27;;;;;;;9.07;4.28;;;10.70;99.90;;;;;;5076420;28;20495;-86
2022/09/21 08:53:57;;;;;;;13.85;4.00;;;10.90;99.90;;;;;;5055039;28;20047;-86
2022/09/21 08:56:26;;;;;;;11.20;3.78;;;10.90;99.90;;;;;;5078217;28;20032;-88
2022/09/21 08:58:52;;;;;;;7.55;3.45;;;11.00;99.90;;;;;;5071275;28;20072;-87
2022/09/21 09:01:46;;;;;;;8.20;3.47;;;11.00;99.90;;;;;;5076876;28;20028;-86
2022/09/21 09:04:53;;;;;;;9.40;3.78;;;11.10;99.90;;;;;;5056887;28;20044;-85
2022/09/21 09:07:24;;;;;;;9.77;2.72;;;11.10;99.90;;;;;;5067644;28;20044;-87
2022/09/21 09:10:05;;;;;;;7.88;2.72;;;11.20;99.90;;;;;;5064535;28;20044;-88
2022/09/21 09:12:59;;;;;;;9.07;3.33;;;11.30;99.90;;;;;;5097964;28;20122;-86
2022/09/21 09:15:49;;;;;;;13.75;3.30;;;11.40;99.90;;;;;;5063265;28;20484;-87
2022/09/21 09:18:59;;;;;;;9.48;3.15;;;11.40;99.90;;;;;;5065674;28;20071;-86
2022/09/21 09:21:36;;;;;;;4.88;2.53;;;11.50;99.90;;;;;;5055100;28;20131;-87
2022/09/21 09:24:29;;;;;;;7.60;2.40;;;11.60;99.90;;;;;;5056011;28;20075;-88
2022/09/21 09:27:14;;;;;;;11.32;2.60;;;11.60;99.90;;;;;;5071118;28;20083;-87
2022/09/21 09:30:03;;;;;;;11.32;2.60;;;11.70;99.90;;;;;;5074387;28;20041;-88
2022/09/21 09:32:52;;;;;;;6.97;2.90;;;11.80;99.90;;;;;;5061359;28;20040;-86
2022/09/21 09:35:33;;;;;;;16.40;2.40;;;11.80;99.90;;;;;;5067638;28;20047;-86
2022/09/21 09:38:04;;;;;;;7.00;3.15;;;11.80;99.90;;;;;;5055907;28;20488;-87
2022/09/21 09:40:53;;;;;;;8.30;3.03;;;11.90;99.90;;;;;;5088831;28;20057;-87
2022/09/21 09:43:38;;;;;;;8.07;3.22;;;12.00;99.90;;;;;;5029381;28;20501;-87
2022/09/21 09:46:38;;;;;;;8.57;2.85;;;12.10;99.90;;;;;;5057432;28;20047;-87
2022/09/21 09:49:18;;;;;;;6.80;1.95;;;12.10;99.90;;;;;;5032494;28;20048;-86
2022/09/21 09:51:45;;;;;;;7.63;2.00;;;12.00;99.90;;;;;;5038395;28;20072;-86
2022/09/21 09:54:17;;;;;;;7.45;2.15;;;12.30;99.90;;;;;;5060589;28;20041;-87
2022/09/21 09:56:43;;;;;;;6.32;1.98;;;12.30;99.90;;;;;;5060911;28;20048;-87
2022/09/21 09:59:16;;;;;;;5.20;1.83;;;12.40;99.90;;;;;;5059793;28;20033;-87
2022/09/21 10:01:47;;;;;;;6.07;1.55;;;12.50;99.90;;;;;;5050395;28;20048;-87
2022/09/21 10:04:16;;;;;;;10.45;1.85;;;12.60;99.90;;;;;;5047166;28;20051;-87
2022/09/21 10:06:43;;;;;;;3.67;1.35;;;12.60;99.90;;;;;;5050652;28;20040;-86
2022/09/21 10:09:29;;;;;;;5.82;1.27;;;13.00;99.90;;;;;;5052189;28;20032;-87
2022/09/21 10:12:02;;;;;;;6.95;1.50;;;12.80;99.90;;;;;;5076054;28;20040;-87
2022/09/21 10:14:33;;;;;;;6.05;1.45;;;12.90;99.90;;;;;;5052225;28;20558;-86
2022/09/21 10:17:06;;;;;;;8.15;1.13;;;12.90;99.90;;;;;;5043250;28;20036;-87
2022/09/21 10:19:33;;;;;;;6.25;1.10;;;13.00;99.90;;;;;;5037405;28;20028;-86
2022/09/21 10:22:00;;;;;;;5.82;1.13;;;13.20;99.90;;;;;;5057926;28;20111;-86
2022/09/21 10:24:32;;;;;;;3.90;1.33;;;13.20;99.90;;;;;;5086545;28;20033;-86
2022/09/21 10:27:18;;;;;;;9.90;1.50;;;13.30;99.90;;;;;;5062012;28;20043;-86
2022/09/21 10:29:48;;;;;;;8.68;1.30;;;13.30;99.90;;;;;;5072042;28;20048;-85
2022/09/21 10:32:16;;;;;;;6.97;1.50;;;13.20;99.90;;;;;;5080531;28;20036;-86
2022/09/21 10:35:04;;;;;;;5.13;1.23;;;13.20;99.90;;;;;;5045779;28;20032;-86
2022/09/21 10:37:40;;;;;;;8.52;1.80;;;13.20;99.90;;;;;;5056731;28;20119;-86
2022/09/21 10:40:21;;;;;;;;;;;13.30;99.90;;;;;;5073890;28;20146;-86
2022/09/21 10:42:49;;;;;;;4.45;1.13;;;13.40;99.90;;;;;;5042775;28;19916;-86
2022/09/21 10:45:21;;;;;;;5.80;1.65;;;13.50;99.90;;;;;;5056683;28;20041;-85
2022/09/21 10:47:48;;;;;;;4.00;1.10;;;13.60;99.90;;;;;;5090252;28;20047;-85
2022/09/21 10:50:24;;;;;;;5.93;1.30;;;13.70;99.90;;;;;;5036633;28;20448;-86
2022/09/21 10:52:55;;;;;;;5.25;1.20;;;13.80;99.90;;;;;;5064149;28;20086;-86
2022/09/21 10:55:23;;;;;;;5.43;1.10;;;13.90;99.90;;;;;;5069496;28;20041;-86
2022/09/21 10:57:51;;;;;;;6.60;1.60;;;14.00;99.90;;;;;;5061014;28;20492;-87
2022/09/21 11:00:23;;;;;;;3.80;1.08;;;14.10;99.90;;;;;;5070626;28;20044;-86
2022/09/21 11:02:49;;;;;;;9.95;1.75;;;14.20;99.90;;;;;;5061227;28;20084;-86
2022/09/21 11:05:22;;;;;;;4.10;1.13;;;14.30;99.90;;;;;;5077303;28;20046;-86
2022/09/21 11:07:56;;;;;;;6.10;1.27;;;14.50;99.90;;;;;;5062040;28;20044;-86
2022/09/21 11:10:40;;;;;;;3.53;1.10;;;14.50;99.90;;;;;;5052117;28;20040;-86
2022/09/21 11:13:22;;;;;;;5.57;1.15;;;14.60;99.90;;;;;;5055206;28;20036;-87
2022/09/21 11:16:09;;;;;;;5.20;1.85;;;14.60;99.90;;;;;;5035491;28;20066;-85
2022/09/21 11:19:01;;;;;;;5.50;1.10;;;14.70;99.90;;;;;;5094733;28;20037;-89
2022/09/21 11:21:43;;;;;;;6.82;1.35;;;14.70;99.90;;;;;;5078910;28;20036;-89
2022/09/21 11:24:23;;;;;;;5.78;1.35;;;14.70;99.90;;;;;;5091191;28;20086;-87
2022/09/21 11:27:01;;;;;;;8.82;1.10;;;14.80;99.90;;;;;;5076727;28;20040;-87
2022/09/21 11:29:35;;;;;;;4.57;1.00;;;14.90;99.90;;;;;;5023356;28;20079;-86
2022/09/21 11:32:10;;;;;;;9.30;1.25;;;14.80;99.90;;;;;;5024343;28;20033;-86
2022/09/21 11:35:16;;;;;;;4.00;1.08;;;14.90;99.90;;;;;;5043134;28;20032;-87
2022/09/21 11:38:19;;;;;;;5.70;1.10;;;14.90;99.90;;;;;;5063074;28;20031;-85
2022/09/21 11:41:23;;;;;;;7.15;1.27;;;14.90;99.90;;;;;;5057179;28;20076;-85
2022/09/21 11:44:01;;;;;;;5.95;1.45;;;15.00;99.90;;;;;;5085277;28;20103;-85
2022/09/21 11:46:54;;;;;;;9.02;1.65;;;15.00;99.90;;;;;;5039720;28;20040;-87
2022/09/21 11:49:42;;;;;;;8.05;1.27;;;15.10;99.90;;;;;;5066567;28;20068;-85
2022/09/21 11:52:22;;;;;;;4.50;1.27;;;15.10;99.90;;;;;;5061147;28;20045;-85
2022/09/21 11:55:29;;;;;;;4.53;1.17;;;15.10;99.90;;;;;;5042096;28;20404;-85
2022/09/21 11:58:06;;;;;;;4.22;1.15;;;15.20;99.90;;;;;;5051030;28;20048;-86
2022/09/21 12:01:16;;;;;;;5.07;1.10;;;15.20;99.90;;;;;;5057463;28;20499;-86
2022/09/21 12:04:11;;;;;;;6.00;1.15;;;15.30;99.90;;;;;;5039049;28;20094;-86
2022/09/21 12:06:46;;;;;;;7.32;1.38;;;15.40;99.90;;;;;;5063671;28;20119;-86
2022/09/21 12:09:17;;;;;;;6.95;1.55;;;15.60;99.90;;;;;;5063169;28;20119;-86
2022/09/21 12:12:07;;;;;;;6.22;1.40;;;15.60;99.90;;;;;;5039851;28;20497;-86
2022/09/21 12:15:15;;;;;;;4.10;1.10;;;15.70;99.90;;;;;;5068107;28;20508;-86
2022/09/21 12:17:55;;;;;;;5.63;1.20;;;15.80;99.90;;;;;;5020418;28;20055;-86
2022/09/21 12:20:24;;;;;;;3.28;1.00;;;15.80;99.90;;;;;;5041161;28;20489;-86
2022/09/21 12:22:56;;;;;;;4.05;1.20;;;15.90;99.90;;;;;;5038824;28;20147;-86
2022/09/21 12:25:40;;;;;;;11.57;1.40;;;16.00;99.90;;;;;;5042224;28;20040;-85
2022/09/21 12:28:23;;;;;;;6.43;1.42;;;16.00;99.90;;;;;;5041804;28;20052;-87
2022/09/21 12:31:03;;;;;;;5.57;1.73;;;16.00;99.90;;;;;;5062759;28;20040;-86
2022/09/21 12:33:45;;;;;;;4.93;1.25;;;16.00;99.90;;;;;;5050872;28;20045;-85
2022/09/21 12:36:16;;;;;;;4.85;1.38;;;16.10;99.90;;;;;;5058155;28;20074;-85
2022/09/21 12:39:06;;;;;;;7.88;1.30;;;16.10;99.90;;;;;;5072592;28;20084;-85
2022/09/21 12:41:41;;;;;;;4.80;1.15;;;16.20;99.90;;;;;;5060881;28;20067;-86
2022/09/21 12:44:32;;;;;;;4.00;1.50;;;16.20;99.90;;;;;;5064871;28;20044;-85
2022/09/21 12:47:08;;;;;;;5.35;1.25;;;16.30;99.90;;;;;;5074270;28;20036;-86
2022/09/21 12:49:43;;;;;;;5.65;1.23;;;16.30;99.90;;;;;;5058244;28;20040;-86
2022/09/21 12:52:16;;;;;;;5.65;1.00;;;16.30;99.90;;;;;;5052082;28;20052;-87
2022/09/21 12:54:57;;;;;;;5.40;1.10;;;16.30;99.90;;;;;;5075081;28;20060;-87
2022/09/21 12:57:48;;;;;;;4.22;1.20;;;16.30;99.90;;;;;;5074289;28;20048;-87
2022/09/21 13:00:18;;;;;;;4.45;0.82;;;16.40;99.90;;;;;;5059772;28;20036;-86
2022/09/21 13:02:54;;;;;;;5.85;1.20;;;16.40;99.90;;;;;;5058922;28;20075;-86
2022/09/21 13:05:26;;;;;;;5.68;1.15;;;16.40;99.90;;;;;;5071588;28;20040;-87
2022/09/21 13:08:26;;;;;;;5.00;1.17;;;16.40;99.90;;;;;;5070413;28;20048;-86
2022/09/21 13:10:59;;;;;;;4.97;1.27;;;16.50;99.90;;;;;;5070909;28;20048;-86
2022/09/21 13:13:37;;;;;;;3.30;0.98;;;16.50;99.90;;;;;;5065148;28;20043;-86
2022/09/21 13:16:06;;;;;;;4.10;1.00;;;16.50;99.90;;;;;;5072567;28;20036;-86
2022/09/21 13:18:35;;;;;;;6.88;0.95;;;16.50;99.90;;;;;;5078577;28;20032;-86
2022/09/21 13:21:21;;;;;;;4.55;1.00;;;16.50;99.90;;;;;;5078338;28;20044;-86
2022/09/21 13:24:00;;;;;;;3.70;1.23;;;16.70;99.90;;;;;;5075536;28;20032;-86
2022/09/21 13:26:41;;;;;;;4.57;0.90;;;16.90;99.20;;;;;;5076588;28;20498;-86
2022/09/21 13:29:29;;;;;;;6.38;0.80;;;17.20;99.00;;;;;;5061549;28;20093;-87